createdAt,value
2018-05-23T00:02:29.487Z,101112.38
2018-05-23T00:05:00.986Z,101112.05
2018-05-23T00:07:32.498Z,101112.31
2018-05-23T00:10:03.117Z,101114.13
2018-05-23T00:12:35.740Z,101113.09
2018-05-23T00:15:15.491Z,101107.45
2018-05-23T00:17:45.947Z,101112.25
2018-05-23T00:20:17.070Z,101109.98
2018-05-23T00:22:47.787Z,101105.50
2018-05-23T00:25:18.545Z,101118.87
2018-05-23T00:27:50.223Z,101118.77
2018-05-23T00:30:24.782Z,101122.24
2018-05-23T00:32:56.644Z,101120.95
2018-05-23T00:35:35.188Z,101118.75
2018-05-23T00:38:06.420Z,101121.31
2018-05-23T00:40:37.002Z,101119.86
2018-05-23T00:43:07.642Z,101115.02
2018-05-23T00:45:42.323Z,101107.55
2018-05-23T00:48:13.416Z,101105.20
2018-05-23T00:50:47.550Z,101101.95
2018-05-23T00:53:19.604Z,101109.52
2018-05-23T00:55:51.416Z,101102.40
2018-05-23T00:58:21.622Z,101103.93
2018-05-23T01:00:52.048Z,101098.80
2018-05-23T01:03:23.169Z,101096.75
2018-05-23T01:05:53.826Z,101109.28
2018-05-23T01:08:24.184Z,101109.94
2018-05-23T01:10:55.016Z,101111.98
2018-05-23T01:13:34.699Z,101105.22
2018-05-23T01:16:08.433Z,101106.23
2018-05-23T01:18:40.986Z,101100.84
2018-05-23T01:21:11.416Z,101110.33
2018-05-23T01:23:42.145Z,101101.67
2018-05-23T01:26:14.930Z,101108.23
2018-05-23T01:28:47.395Z,101104.11
2018-05-23T01:31:18.253Z,101105.13
2018-05-23T01:33:48.446Z,101108.55
2018-05-23T01:36:22.186Z,101103.73
2018-05-23T01:38:54.728Z,101103.78
2018-05-23T01:41:25.503Z,101106.48
2018-05-23T01:43:57.893Z,101111.33
2018-05-23T01:46:28.847Z,101109.09
2018-05-23T01:49:38.668Z,101109.72
2018-05-23T01:52:10.106Z,101116.91
2018-05-23T01:54:42.633Z,101108.86
2018-05-23T01:57:15.252Z,101108.32
2018-05-23T01:59:46.120Z,101113.41
2018-05-23T02:02:18.922Z,101109.60
2018-05-23T02:04:51.313Z,101118.67
2018-05-23T02:07:22.228Z,101113.14
2018-05-23T02:09:53.410Z,101121.80
2018-05-23T02:12:25.302Z,101123.69
2018-05-23T02:14:57.962Z,101128.22
2018-05-23T02:17:29.393Z,101118.85
2018-05-23T02:20:00.035Z,101127.20
2018-05-23T02:22:30.824Z,101126.04
2018-05-23T02:25:02.002Z,101120.36
2018-05-23T02:27:32.773Z,101119.75
2018-05-23T02:30:05.560Z,101125.52
2018-05-23T02:32:40.913Z,101119.92
2018-05-23T02:35:12.583Z,101125.86
2018-05-23T02:37:43.307Z,101123.55
2018-05-23T02:40:15.139Z,101127.56
2018-05-23T02:42:46.076Z,101128.88
2018-05-23T02:45:20.613Z,101126.47
2018-05-23T02:47:51.625Z,101130.18
2018-05-23T02:50:25.359Z,101128.48
2018-05-23T02:52:57.914Z,101132.20
2018-05-23T02:55:28.593Z,101132.80
2018-05-23T02:58:02.675Z,101136.31
2018-05-23T03:00:33.751Z,101135.54
2018-05-23T03:03:06.052Z,101123.97
2018-05-23T03:05:36.942Z,101130.69
2018-05-23T03:08:18.398Z,101131.02
2018-05-23T03:10:54.350Z,101130.58
2018-05-23T03:13:27.041Z,101132.20
2018-05-23T03:15:58.527Z,101131.80
2018-05-23T03:18:31.452Z,101135.23
2018-05-23T03:21:03.824Z,101134.91
2018-05-23T03:23:35.078Z,101126.38
2018-05-23T03:26:05.582Z,101133.88
2018-05-23T03:28:35.926Z,101134.66
2018-05-23T03:31:07.651Z,101140.83
2018-05-23T03:33:40.351Z,101151.22
2018-05-23T03:36:11.932Z,101150.79
2018-05-23T03:38:43.778Z,101149.72
2018-05-23T03:41:15.459Z,101149.02
2018-05-23T03:43:46.261Z,101156.73
2018-05-23T03:46:18.933Z,101164.41
2018-05-23T03:49:02.582Z,101167.09
2018-05-23T03:51:33.547Z,101171.33
2018-05-23T03:54:04.154Z,101171.24
2018-05-23T03:56:35.115Z,101173.94
2018-05-23T03:59:16.498Z,101173.16
2018-05-23T04:02:55.563Z,101174.48
2018-05-23T04:07:50.375Z,101174.58
2018-05-23T04:10:20.841Z,101169.85
2018-05-23T04:12:51.083Z,101177.56
2018-05-23T04:15:21.728Z,101177.89
2018-05-23T04:17:52.292Z,101183.92
2018-05-23T04:20:22.934Z,101178.69
2018-05-23T04:22:55.572Z,101181.92
2018-05-23T04:25:26.244Z,101182.05
2018-05-23T04:27:57.104Z,101185.92
2018-05-23T04:30:27.985Z,101188.17
2018-05-23T04:32:58.477Z,101186.52
2018-05-23T04:35:29.781Z,101192.85
2018-05-23T04:38:01.279Z,101186.87
2018-05-23T04:40:32.124Z,101190.23
2018-05-23T04:43:02.284Z,101199.82
2018-05-23T04:45:35.909Z,101195.78
2018-05-23T04:48:08.819Z,101206.35
2018-05-23T04:50:39.193Z,101203.81
2018-05-23T04:53:12.126Z,101209.77
2018-05-23T04:55:43.038Z,101210.57
2018-05-23T04:58:13.919Z,101214.89
2018-05-23T05:00:46.243Z,101218.80
2018-05-23T05:03:16.956Z,101220.05
2018-05-23T05:05:50.652Z,101225.50
2018-05-23T05:08:24.191Z,101230.11
2018-05-23T05:10:56.879Z,101239.53
2018-05-23T05:13:29.547Z,101241.95
2018-05-23T05:18:37.756Z,101247.61
2018-05-23T05:24:03.386Z,101257.64
2018-05-23T05:26:34.052Z,101261.13
2018-05-23T05:29:06.247Z,101263.17
2018-05-23T05:31:37.203Z,101269.59
2018-05-23T05:34:16.369Z,101272.31
2018-05-23T05:36:47.165Z,101271.45
2018-05-23T05:39:17.732Z,101280.03
2018-05-23T05:41:48.676Z,101282.10
2018-05-23T05:44:21.177Z,101277.47
2018-05-23T05:46:56.729Z,101284.66
2018-05-23T05:49:38.867Z,101287.98
2018-05-23T05:52:13.810Z,101283.67
2018-05-23T05:54:45.529Z,101289.83
2018-05-23T05:57:16.967Z,101293.84
2018-05-23T05:59:50.647Z,101295.63
2018-05-23T06:02:23.538Z,101305.49
2018-05-23T06:04:54.115Z,101318.81
2018-05-23T06:07:24.556Z,101316.16
2018-05-23T06:09:56.802Z,101324.80
2018-05-23T06:12:27.648Z,101322.44
2018-05-23T06:15:02.970Z,101323.84
2018-05-23T06:17:35.558Z,101337.63
2018-05-23T06:20:11.128Z,101340.92
2018-05-23T06:22:44.518Z,101335.13
2018-05-23T06:25:27.433Z,101326.81
2018-05-23T06:28:01.205Z,101334.25
2018-05-23T06:30:32.496Z,101329.46
2018-05-23T06:33:06.434Z,101335.93
2018-05-23T06:35:41.897Z,101317.77
2018-05-23T06:38:12.893Z,101338.27
2018-05-23T06:40:43.677Z,101338.17
2018-05-23T06:43:14.756Z,101345.73
2018-05-23T06:45:45.200Z,101352.85
2018-05-23T06:48:16.497Z,101352.20
2018-05-23T06:50:51.908Z,101352.20
2018-05-23T06:53:22.818Z,101355.25
2018-05-23T06:55:53.291Z,101356.17
2018-05-23T06:58:29.165Z,101349.83
2018-05-23T07:01:01.491Z,101349.81
2018-05-23T07:03:35.613Z,101354.31
2018-05-23T07:06:08.445Z,101356.59
2018-05-23T07:08:46.034Z,101361.25
2018-05-23T07:11:17.179Z,101357.19
2018-05-23T07:13:47.955Z,101361.63
2018-05-23T07:16:39.074Z,101364.64
2018-05-23T07:19:14.278Z,101364.28
2018-05-23T07:21:46.448Z,101363.67
2018-05-23T07:24:20.700Z,101367.02
2018-05-23T07:26:55.285Z,101378.46
2018-05-23T07:32:12.532Z,101380.31
2018-05-23T07:34:46.444Z,101376.37
2018-05-23T07:37:19.533Z,101376.56
2018-05-23T07:39:52.703Z,101364.05
2018-05-23T07:42:26.276Z,101373.36
2018-05-23T07:45:00.149Z,101377.13
2018-05-23T07:47:35.613Z,101374.73
2018-05-23T07:50:08.200Z,101369.70
2018-05-23T07:52:44.565Z,101372.42
2018-05-23T07:55:16.933Z,101375.37
2018-05-23T07:57:54.478Z,101373.58
2018-05-23T08:00:27.695Z,101369.31
2018-05-23T08:02:58.154Z,101374.98
2018-05-23T08:05:34.251Z,101376.45
2018-05-23T08:08:06.746Z,101376.55
2018-05-23T08:10:37.991Z,101386.25
2018-05-23T08:13:11.117Z,101389.39
2018-05-23T08:15:53.267Z,101394.36
2018-05-23T08:23:59.499Z,101393.23
2018-05-23T08:26:30.276Z,101399.20
2018-05-23T08:29:02.081Z,101409.31
2018-05-23T08:31:34.281Z,101402.81
2018-05-23T08:34:04.821Z,101404.84
2018-05-23T08:36:36.849Z,101411.27
2018-05-23T08:39:07.915Z,101403.58
2018-05-23T08:41:40.281Z,101407.88
2018-05-23T08:44:11.031Z,101409.95
2018-05-23T08:46:45.892Z,101403.20
2018-05-23T08:49:16.852Z,101410.97
2018-05-23T08:51:47.631Z,101407.75
2018-05-23T08:54:19.477Z,101417.53
2018-05-23T08:56:50.505Z,101420.42
2018-05-23T08:59:21.067Z,101422.20
2018-05-23T09:01:53.030Z,101423.11
2018-05-23T09:04:23.537Z,101425.12
2018-05-23T09:06:53.883Z,101428.78
2018-05-23T09:09:25.150Z,101420.48
2018-05-23T09:11:56.468Z,101429.08
2018-05-23T09:14:28.992Z,101422.19
2018-05-23T09:17:01.364Z,101422.04
2018-05-23T09:19:43.648Z,101433.81
2018-05-23T09:22:14.492Z,101439.30
2018-05-23T09:24:48.168Z,101446.52
2018-05-23T09:27:23.944Z,101438.61
2018-05-23T09:29:56.842Z,101436.31
2018-05-23T09:32:31.319Z,101437.34
2018-05-23T09:35:04.231Z,101443.92
2018-05-23T09:37:35.561Z,101446.19
2018-05-23T09:40:06.856Z,101442.61
2018-05-23T09:42:38.130Z,101450.99
2018-05-23T09:45:15.644Z,101453.77
2018-05-23T09:47:46.692Z,101456.52
2018-05-23T09:50:18.357Z,101462.31
2018-05-23T09:52:48.739Z,101458.21
2018-05-23T09:55:21.347Z,101467.08
2018-05-23T09:57:52.056Z,101454.97
2018-05-23T10:00:27.203Z,101462.98
2018-05-23T10:02:59.160Z,101460.13
2018-05-23T10:05:48.013Z,101458.43
2018-05-23T10:08:24.461Z,101465.77
2018-05-23T10:10:57.401Z,101465.76
2018-05-23T10:13:27.980Z,101469.30
2018-05-23T10:16:00.420Z,101454.11
2018-05-23T10:21:15.660Z,101477.14
2018-05-23T10:26:51.888Z,101476.23
2018-05-23T10:29:23.842Z,101470.63
2018-05-23T10:31:56.286Z,101471.01
2018-05-23T10:34:27.357Z,101477.13
2018-05-23T10:36:59.279Z,101479.12
2018-05-23T10:39:30.159Z,101489.14
2018-05-23T10:42:04.051Z,101484.41
2018-05-23T10:44:35.174Z,101489.75
2018-05-23T10:47:06.413Z,101499.03
2018-05-23T10:49:36.869Z,101489.73
2018-05-23T10:52:08.043Z,101497.17
2018-05-23T10:54:52.305Z,101508.67
2018-05-23T10:57:24.761Z,101509.88
2018-05-23T10:59:56.026Z,101517.84
2018-05-23T11:02:30.141Z,101514.84
2018-05-23T11:05:07.694Z,101521.03
2018-05-23T11:08:01.557Z,101524.56
2018-05-23T11:10:55.863Z,101524.97
2018-05-23T11:13:37.784Z,101529.70
2018-05-23T11:18:55.695Z,101535.83
2018-05-23T11:21:33.578Z,101512.13
2018-05-23T11:24:12.045Z,101530.28
2018-05-23T11:26:47.442Z,101526.47
2018-05-23T11:29:18.340Z,101531.73
2018-05-23T11:31:51.418Z,101537.48
2018-05-23T11:34:26.954Z,101524.03
2018-05-23T11:37:04.103Z,101533.52
2018-05-23T11:39:37.208Z,101542.83
2018-05-23T11:42:09.061Z,101540.41
2018-05-23T11:44:40.363Z,101537.45
2018-05-23T11:47:12.673Z,101546.27
2018-05-23T11:49:43.051Z,101549.86
2018-05-23T11:52:15.217Z,101533.89
2018-05-23T11:54:47.562Z,101536.94
2018-05-23T11:57:18.883Z,101537.47
2018-05-23T11:59:50.665Z,101528.34
2018-05-23T12:02:21.559Z,101523.70
2018-05-23T12:04:52.543Z,101526.53
2018-05-23T12:07:32.209Z,101534.16
2018-05-23T12:10:07.964Z,101530.25
2018-05-23T12:12:44.298Z,101532.55
2018-05-23T12:15:19.319Z,101532.25
2018-05-23T12:17:50.848Z,101534.64
2018-05-23T12:20:21.966Z,101529.37
2018-05-23T12:22:54.126Z,101532.05
2018-05-23T12:25:28.772Z,101491.77
2018-05-23T12:28:00.766Z,101540.43
2018-05-23T12:30:39.360Z,101531.64
2018-05-23T12:33:14.958Z,101532.25
2018-05-23T12:36:10.645Z,101536.20
2018-05-23T12:38:52.311Z,101537.90
2018-05-23T12:41:31.941Z,101527.34
2018-05-23T12:44:06.589Z,101529.02
2018-05-23T12:46:56.650Z,101530.69
2018-05-23T12:49:42.761Z,101532.66
2018-05-23T12:52:26.343Z,101533.41
2018-05-23T12:54:58.120Z,101528.59
2018-05-23T12:57:31.041Z,101524.63
2018-05-23T13:02:51.118Z,101522.41
2018-05-23T13:05:23.722Z,101524.39
2018-05-23T13:07:59.965Z,101522.41
2018-05-23T13:10:31.253Z,101503.14
2018-05-23T13:13:01.774Z,101514.45
2018-05-23T13:15:40.848Z,101512.56
2018-05-23T13:18:12.883Z,101514.33
2018-05-23T13:20:46.089Z,101497.91
2018-05-23T13:23:17.632Z,101503.98
2018-05-23T13:25:51.172Z,101493.83
2018-05-23T13:28:45.516Z,101491.84
2018-05-23T13:31:20.154Z,101473.59
2018-05-23T13:33:54.465Z,101464.28
2018-05-23T13:36:25.657Z,101470.86
2018-05-23T13:38:56.108Z,101473.30
2018-05-23T13:41:29.995Z,101467.42
2018-05-23T13:44:02.685Z,101468.12
2018-05-23T13:46:36.634Z,101456.62
2018-05-23T13:49:09.014Z,101446.64
2018-05-23T13:51:42.592Z,101440.98
2018-05-23T13:54:15.435Z,101447.85
2018-05-23T13:56:47.111Z,101445.12
2018-05-23T13:59:27.671Z,101439.98
2018-05-23T14:01:58.876Z,101432.70
2018-05-23T14:04:33.773Z,101431.84
2018-05-23T14:07:06.250Z,101431.09
2018-05-23T14:09:39.009Z,101426.70
2018-05-23T14:12:09.804Z,101427.67
2018-05-23T14:14:56.164Z,101426.80
2018-05-23T14:17:44.699Z,101422.88
2018-05-23T14:20:15.738Z,101419.34
2018-05-23T14:22:52.389Z,101424.27
2018-05-23T14:25:23.589Z,101415.20
2018-05-23T14:27:56.445Z,101424.14
2018-05-23T14:30:35.830Z,101419.59
2018-05-23T14:33:12.715Z,101417.53
2018-05-23T14:35:47.679Z,101416.98
2018-05-23T14:38:18.517Z,101415.34
2018-05-23T14:40:54.694Z,101411.12
2018-05-23T14:43:31.203Z,101417.72
2018-05-23T14:46:05.274Z,101416.72
2018-05-23T14:48:39.239Z,101416.93
2018-05-23T14:51:16.986Z,101410.06
2018-05-23T14:53:53.170Z,101408.91
2018-05-23T14:56:26.713Z,101406.34
2018-05-23T14:59:09.957Z,101415.59
2018-05-23T15:01:47.351Z,101410.89
2018-05-23T15:04:23.649Z,101385.95
2018-05-23T15:07:01.914Z,101408.38
2018-05-23T15:09:35.317Z,101404.59
2018-05-23T15:12:16.344Z,101408.39
2018-05-23T15:14:51.700Z,101399.80
2018-05-23T15:17:25.670Z,101401.33
2018-05-23T15:20:01.358Z,101410.06
2018-05-23T15:22:37.892Z,101417.82
2018-05-23T15:25:11.453Z,101407.64
2018-05-23T15:27:43.730Z,101407.27
2018-05-23T15:30:18.650Z,101419.08
2018-05-23T15:32:50.893Z,101413.55
2018-05-23T15:35:22.990Z,101410.95
2018-05-23T15:37:58.060Z,101414.00
2018-05-23T15:40:30.234Z,101408.25
2018-05-23T15:43:02.106Z,101408.10
2018-05-23T15:45:33.249Z,101408.17
2018-05-23T15:48:04.009Z,101411.58
2018-05-23T15:50:35.356Z,101410.82
2018-05-23T15:53:07.532Z,101412.87
2018-05-23T15:55:39.575Z,101411.84
2018-05-23T15:58:16.248Z,101415.23
2018-05-23T16:00:48.644Z,101411.78
2018-05-23T16:03:27.872Z,101402.18
2018-05-23T16:06:02.906Z,101414.56
2018-05-23T16:08:39.558Z,101417.31
2018-05-23T16:11:11.431Z,101421.22
2018-05-23T16:13:42.072Z,101414.27
2018-05-23T16:16:14.127Z,101411.02
2018-05-23T16:18:50.301Z,101417.67
2018-05-23T16:21:21.861Z,101419.06
2018-05-23T16:23:54.881Z,101410.18
2018-05-23T16:26:25.993Z,101414.64
2018-05-23T16:28:57.807Z,101409.23
2018-05-23T16:31:29.375Z,101414.44
2018-05-23T16:34:14.084Z,101415.22
2018-05-23T16:36:46.370Z,101411.12
2018-05-23T16:39:20.159Z,101410.49
2018-05-23T16:41:51.093Z,101407.49
2018-05-23T16:44:26.699Z,101414.48
2018-05-23T16:46:58.501Z,101408.02
2018-05-23T16:49:30.127Z,101404.19
2018-05-23T16:52:01.193Z,101409.75
2018-05-23T16:54:39.462Z,101405.66
2018-05-23T16:57:12.661Z,101406.23
2018-05-23T16:59:43.873Z,101377.39
2018-05-23T17:02:16.353Z,101406.03
2018-05-23T17:04:47.023Z,101414.75
2018-05-23T17:07:30.269Z,101408.88
2018-05-23T17:10:05.623Z,101413.33
2018-05-23T17:12:37.923Z,101421.57
2018-05-23T17:15:19.696Z,101420.09
2018-05-23T17:18:01.977Z,101424.09
2018-05-23T17:20:37.678Z,101435.20
2018-05-23T17:23:10.621Z,101430.69
2018-05-23T17:25:42.487Z,101431.11
2018-05-23T17:28:22.367Z,101437.52
2018-05-23T17:30:55.113Z,101431.11
2018-05-23T17:33:31.152Z,101434.05
2018-05-23T17:36:11.181Z,101432.67
2018-05-23T17:39:01.893Z,101427.83
2018-05-23T17:41:32.789Z,101394.33
2018-05-23T17:44:04.979Z,101430.58
2018-05-23T17:46:38.906Z,101425.61
2018-05-23T17:49:09.990Z,101426.17
2018-05-23T17:51:42.127Z,101421.14
2018-05-23T17:54:13.277Z,101416.73
2018-05-23T17:56:56.369Z,101427.98
2018-05-23T17:59:34.261Z,101413.75
2018-05-23T18:02:14.229Z,101421.55
2018-05-23T18:04:49.629Z,101425.11
2018-05-23T18:07:21.421Z,101423.44
2018-05-23T18:09:52.248Z,101415.84
2018-05-23T18:12:23.472Z,101421.19
2018-05-23T18:14:57.176Z,101430.00
2018-05-23T18:17:28.341Z,101428.34
2018-05-23T18:20:05.374Z,101424.74
2018-05-23T18:22:48.136Z,101431.88
2018-05-23T18:25:20.668Z,101432.52
2018-05-23T18:27:51.094Z,101434.09
2018-05-23T18:30:30.458Z,101435.24
2018-05-23T18:33:01.547Z,101431.04
2018-05-23T18:35:45.567Z,101441.95
2018-05-23T18:38:17.633Z,101439.09
2018-05-23T18:40:49.522Z,101434.24
2018-05-23T18:43:21.118Z,101441.41
2018-05-23T18:45:54.746Z,101441.59
2018-05-23T18:48:28.691Z,101438.19
2018-05-23T18:51:08.325Z,101435.23
2018-05-23T18:53:40.769Z,101438.20
2018-05-23T18:56:11.862Z,101437.06
2018-05-23T18:58:46.991Z,101448.00
2018-05-23T19:01:23.089Z,101429.52
2018-05-23T19:04:00.851Z,101444.36
2018-05-23T19:06:37.794Z,101442.06
2018-05-23T19:09:10.334Z,101454.48
2018-05-23T19:11:47.143Z,101440.67
2018-05-23T19:14:25.761Z,101456.25
2018-05-23T19:17:10.175Z,101437.78
2018-05-23T19:19:43.176Z,101445.72
2018-05-23T19:22:16.819Z,101458.61
2018-05-23T19:24:49.744Z,101424.88
2018-05-23T19:27:23.103Z,101463.96
2018-05-23T19:29:54.524Z,101466.36
2018-05-23T19:32:30.426Z,101457.58
2018-05-23T19:35:02.929Z,101470.15
2018-05-23T19:37:37.580Z,101472.14
2018-05-23T19:40:12.402Z,101481.88
2018-05-23T19:42:44.280Z,101489.30
2018-05-23T19:45:23.491Z,101486.21
2018-05-23T19:47:55.572Z,101480.56
2018-05-23T19:50:27.604Z,101489.33
2018-05-23T19:53:05.586Z,101479.56
2018-05-23T19:55:50.962Z,101496.50
2018-05-23T19:58:24.474Z,101500.35
2018-05-23T20:00:58.708Z,101498.96
2018-05-23T20:03:37.918Z,101497.70
2018-05-23T20:06:18.161Z,101501.03
2018-05-23T20:08:58.795Z,101501.70
2018-05-23T20:11:31.952Z,101505.00
2018-05-23T20:14:07.281Z,101505.51
2018-05-23T20:16:56.971Z,101506.08
2018-05-23T20:19:35.825Z,101505.42
2018-05-23T20:22:11.195Z,101511.98
2018-05-23T20:24:44.004Z,101509.11
2018-05-23T20:27:14.342Z,101516.42
2018-05-23T20:29:50.086Z,101507.61
2018-05-23T20:32:22.448Z,101494.48
2018-05-23T20:34:53.303Z,101506.84
2018-05-23T20:37:24.882Z,101501.18
2018-05-23T20:40:00.934Z,101509.31
2018-05-23T20:42:40.904Z,101506.56
2018-05-23T20:45:24.338Z,101512.30
2018-05-23T20:48:04.454Z,101510.19
2018-05-23T20:51:03.736Z,101509.11
2018-05-23T20:56:17.206Z,101507.00
2018-05-23T20:58:56.845Z,101508.17
2018-05-23T21:01:33.481Z,101511.83
2018-05-23T21:04:05.256Z,101503.81
2018-05-23T21:06:40.488Z,101509.51
2018-05-23T21:09:11.962Z,101509.42
2018-05-23T21:11:43.400Z,101504.50
2018-05-23T21:14:14.276Z,101520.32
2018-05-23T21:16:57.911Z,101516.33
2018-05-23T21:19:33.634Z,101526.77
2018-05-23T21:22:07.002Z,101521.73
2018-05-23T21:24:38.285Z,101524.45
2018-05-23T21:27:10.583Z,101527.08
2018-05-23T21:29:42.275Z,101532.69
2018-05-23T21:32:13.682Z,101534.47
2018-05-23T21:34:50.205Z,101539.13
2018-05-23T21:37:21.029Z,101528.31
2018-05-23T21:39:51.817Z,101538.66
2018-05-23T21:42:25.083Z,101528.63
2018-05-23T21:45:04.166Z,101538.22
2018-05-23T21:47:41.515Z,101535.09
2018-05-23T21:50:13.114Z,101537.09
2018-05-23T21:52:44.358Z,101532.43
2018-05-23T21:55:14.753Z,101537.11
2018-05-23T21:57:46.361Z,101529.89
2018-05-23T22:00:21.434Z,101534.30
2018-05-23T22:02:54.014Z,101526.02
2018-05-23T22:05:24.855Z,101532.51
2018-05-23T22:08:04.259Z,101526.58
2018-05-23T22:10:40.215Z,101529.92
2018-05-23T22:13:11.620Z,101530.98
2018-05-23T22:15:42.867Z,101528.36
2018-05-23T22:18:19.248Z,101526.66
2018-05-23T22:20:49.941Z,101530.26
2018-05-23T22:23:20.339Z,101520.89
2018-05-23T22:25:50.823Z,101523.80
2018-05-23T22:28:22.232Z,101519.74
2018-05-23T22:30:52.933Z,101521.93
2018-05-23T22:33:23.694Z,101525.67
2018-05-23T22:35:54.172Z,101522.19
2018-05-23T22:38:25.281Z,101518.28
2018-05-23T22:40:56.854Z,101510.84
2018-05-23T22:43:28.450Z,101518.88
2018-05-23T22:46:03.014Z,101525.26
2018-05-23T22:48:34.626Z,101521.83
2018-05-23T22:51:06.683Z,101516.93
2018-05-23T22:53:37.239Z,101520.56
2018-05-23T22:56:08.681Z,101526.98
2018-05-23T22:58:40.402Z,101526.05
2018-05-23T23:01:13.722Z,101526.30
2018-05-23T23:03:44.602Z,101528.87
2018-05-23T23:06:15.383Z,101528.09
2018-05-23T23:08:47.471Z,101512.75
2018-05-23T23:13:56.374Z,101525.59
2018-05-23T23:16:27.212Z,101524.34
2018-05-23T23:18:58.279Z,101530.16
2018-05-23T23:21:28.902Z,101525.91
2018-05-23T23:24:04.179Z,101526.70
2018-05-23T23:26:38.914Z,101535.08
2018-05-23T23:29:17.892Z,101528.93
2018-05-23T23:31:50.628Z,101532.00
2018-05-23T23:34:22.563Z,101530.25
2018-05-23T23:36:53.346Z,101533.14
2018-05-23T23:39:24.907Z,101529.38
2018-05-23T23:41:55.745Z,101532.61
2018-05-23T23:47:04.130Z,101529.51
2018-05-23T23:49:34.815Z,101528.60
2018-05-23T23:52:05.565Z,101523.69
2018-05-23T23:54:36.175Z,101515.31
2018-05-23T23:57:07.060Z,101518.48
2018-05-23T23:59:39.014Z,101519.14
